createdAt,value
2022-10-09T00:00:06.151Z,101748.31
2022-10-09T00:10:14.484Z,101730.47
2022-10-09T00:20:19.162Z,101739.16
2022-10-09T00:30:22.306Z,101730.03
2022-10-09T00:40:27.524Z,101737.91
2022-10-09T00:50:39.735Z,101731.06
2022-10-09T01:00:43.785Z,101734.63
2022-10-09T01:10:55.616Z,101739.78
2022-10-09T01:21:09.247Z,101736.41
2022-10-09T01:31:14.905Z,101733.03
2022-10-09T01:41:18.575Z,101721.00
2022-10-09T01:51:28.348Z,101715.06
2022-10-09T02:01:34.289Z,101715.09
2022-10-09T02:11:40.635Z,101707.34
2022-10-09T02:21:46.838Z,101721.94
2022-10-09T02:31:52.281Z,101721.91
2022-10-09T02:41:55.254Z,101709.94
2022-10-09T02:51:59.900Z,101715.94
2022-10-09T03:02:03.520Z,101710.78
2022-10-09T03:12:07.982Z,101694.50
2022-10-09T03:22:10.874Z,101706.50
2022-10-09T03:32:15.266Z,101698.72
2022-10-09T03:42:18.276Z,101692.75
2022-10-09T03:52:22.763Z,101695.19
2022-10-09T04:02:25.949Z,101689.31
2022-10-09T04:12:30.007Z,101686.78
2022-10-09T04:22:33.000Z,101677.34
2022-10-09T04:32:37.159Z,101665.34
2022-10-09T04:42:40.814Z,101664.41
2022-10-09T04:52:45.140Z,101667.88
2022-10-09T05:02:48.392Z,101666.06
2022-10-09T05:12:52.925Z,101665.16
2022-10-09T05:22:58.096Z,101658.41
2022-10-09T05:33:02.414Z,101654.97
2022-10-09T05:43:05.611Z,101665.06
2022-10-09T05:53:09.956Z,101661.66
2022-10-09T06:03:12.891Z,101658.19
2022-10-09T06:13:19.126Z,101657.34
2022-10-09T06:23:22.280Z,101666.59
2022-10-09T06:33:26.708Z,101648.16
2022-10-09T06:43:29.642Z,101659.41
2022-10-09T06:53:35.216Z,101655.97
2022-10-09T07:03:40.846Z,101669.66
2022-10-09T07:13:45.800Z,101669.69
2022-10-09T07:23:49.343Z,101665.44
2022-10-09T07:33:55.545Z,101652.53
2022-10-09T07:44:01.234Z,101653.38
2022-10-09T07:54:05.950Z,101636.06
2022-10-09T08:04:10.202Z,101633.19
2022-10-09T08:14:19.190Z,101642.97
2022-10-09T08:24:22.391Z,101632.53
2022-10-09T08:34:27.372Z,101616.88
2022-10-09T08:44:33.705Z,101618.00
2022-10-09T08:54:40.596Z,101599.34
2022-10-09T09:04:54.930Z,101584.50
2022-10-09T09:15:17.101Z,101584.72
2022-10-09T09:25:23.431Z,101569.75
2022-10-09T09:35:34.099Z,101551.19
2022-10-09T09:45:37.090Z,101542.25
2022-10-09T09:55:43.343Z,101536.59
2022-10-09T10:05:46.854Z,101521.91
2022-10-09T10:15:54.213Z,101499.88
2022-10-09T10:25:59.267Z,101497.44
2022-10-09T10:36:03.699Z,101482.44
2022-10-09T10:46:15.274Z,101464.31
2022-10-09T10:56:27.473Z,101453.06
2022-10-09T11:06:39.273Z,101425.25
2022-10-09T11:16:57.210Z,101413.03
2022-10-09T11:27:07.775Z,101406.59
2022-10-09T11:37:20.544Z,101378.97
2022-10-09T11:47:31.932Z,101374.47
2022-10-09T11:57:36.196Z,101352.88
2022-10-09T12:07:40.626Z,101333.91
2022-10-09T12:17:49.935Z,101314.84
2022-10-09T12:27:55.467Z,101308.81
2022-10-09T12:37:59.790Z,101292.00
2022-10-09T12:48:12.528Z,101275.59
2022-10-09T12:58:20.355Z,101261.06
2022-10-09T13:08:26.877Z,101247.78
2022-10-09T13:18:31.292Z,101244.66
2022-10-09T13:28:34.173Z,101226.19
2022-10-09T13:38:38.506Z,101205.50
2022-10-09T13:48:41.533Z,101189.66
2022-10-09T13:58:45.855Z,101167.47
2022-10-09T14:08:50.291Z,101152.22
2022-10-09T14:18:57.763Z,101143.13
2022-10-09T14:29:02.184Z,101132.34
2022-10-09T14:39:06.461Z,101107.38
2022-10-09T14:49:09.577Z,101087.72
2022-10-09T14:59:14.188Z,101072.63
2022-10-09T15:09:17.264Z,101065.09
2022-10-09T15:19:21.585Z,101052.00
2022-10-09T15:29:24.410Z,101031.66
2022-10-09T15:39:29.037Z,101019.06
2022-10-09T15:49:31.918Z,101010.56
2022-10-09T15:59:40.179Z,101007.41
2022-10-09T16:09:42.914Z,100991.41
2022-10-09T16:19:47.264Z,101000.75
2022-10-09T16:29:50.451Z,100986.63
2022-10-09T16:39:57.646Z,100992.28
2022-10-09T16:50:00.652Z,100992.81
2022-10-09T17:00:06.017Z,100988.91
2022-10-09T17:10:10.724Z,100997.44
2022-10-09T17:20:15.434Z,100991.09
2022-10-09T17:30:21.215Z,100988.44
2022-10-09T17:40:25.846Z,100991.97
2022-10-09T17:50:28.895Z,100981.38
2022-10-09T18:00:33.482Z,100970.81
2022-10-09T18:10:37.303Z,100968.50
2022-10-09T18:20:41.678Z,100955.38
2022-10-09T18:30:46.266Z,100949.84
2022-10-09T18:40:50.678Z,100945.31
2022-10-09T18:50:53.562Z,100931.91
2022-10-09T19:00:57.564Z,100918.50
2022-10-09T19:11:00.667Z,100921.25
2022-10-09T19:21:05.743Z,100914.97
2022-10-09T19:31:09.960Z,100901.28
2022-10-09T19:41:16.555Z,100890.28
2022-10-09T19:51:22.407Z,100897.78
2022-10-09T20:01:28.016Z,100882.03
2022-10-09T20:11:30.863Z,100892.41
2022-10-09T20:21:35.521Z,100884.31
2022-10-09T20:31:38.571Z,100875.53
2022-10-09T20:41:43.654Z,100876.72
2022-10-09T20:51:46.528Z,100867.53
2022-10-09T21:01:50.646Z,100861.34
2022-10-09T21:11:53.639Z,100859.75
2022-10-09T21:21:57.943Z,100855.16
2022-10-09T21:32:00.927Z,100861.50
2022-10-09T21:42:05.730Z,100858.88
2022-10-09T21:52:10.639Z,100860.47
2022-10-09T22:02:14.827Z,100853.50
2022-10-09T22:12:17.971Z,100851.03
2022-10-09T22:22:23.622Z,100839.78
2022-10-09T22:32:27.898Z,100835.31
2022-10-09T22:42:32.246Z,100819.19
2022-10-09T22:52:35.304Z,100815.59
2022-10-09T23:02:39.724Z,100805.41
2022-10-09T23:12:43.031Z,100798.81
2022-10-09T23:22:47.794Z,100795.66
2022-10-09T23:32:53.376Z,100786.41
2022-10-09T23:42:57.979Z,100784.31
2022-10-09T23:53:01.027Z,100771.94
